sensor_id;sensor_type;location;lat;lon;timestamp;temperature;humidity
64501;DHT22;50874;24.150;-110.320;2022-09-03T00:01:04;29.00;99.90
64501;DHT22;50874;24.150;-110.320;2022-09-03T00:03:42;29.00;99.90
64501;DHT22;50874;24.150;-110.320;2022-09-03T00:08:54;29.00;99.90
64501;DHT22;50874;24.150;-110.320;2022-09-03T00:12:01;29.00;99.90
64501;DHT22;50874;24.150;-110.320;2022-09-03T00:14:38;29.00;99.90
64501;DHT22;50874;24.150;-110.320;2022-09-03T00:17:17;29.10;99.90
64501;DHT22;50874;24.150;-110.320;2022-09-03T00:22:46;29.10;99.90
64501;DHT22;50874;24.150;-110.320;2022-09-03T00:25:18;29.10;99.90
64501;DHT22;50874;24.150;-110.320;2022-09-03T00:27:52;29.20;99.90
64501;DHT22;50874;24.150;-110.320;2022-09-03T00:30:20;29.20;99.90
64501;DHT22;50874;24.150;-110.320;2022-09-03T00:33:07;29.10;99.90
64501;DHT22;50874;24.150;-110.320;2022-09-03T00:35:44;29.10;99.90
64501;DHT22;50874;24.150;-110.320;2022-09-03T00:38:13;29.10;99.90
64501;DHT22;50874;24.150;-110.320;2022-09-03T00:49:16;29.10;99.90
64501;DHT22;50874;24.150;-110.320;2022-09-03T01:00:14;29.00;99.90
64501;DHT22;50874;24.150;-110.320;2022-09-03T01:30:14;28.80;99.90
64501;DHT22;50874;24.150;-110.320;2022-09-03T01:35:33;28.80;99.90
64501;DHT22;50874;24.150;-110.320;2022-09-03T01:40:45;28.80;99.90
64501;DHT22;50874;24.150;-110.320;2022-09-03T01:46:08;28.80;99.90
64501;DHT22;50874;24.150;-110.320;2022-09-03T01:51:27;28.80;99.90
64501;DHT22;50874;24.150;-110.320;2022-09-03T01:53:59;28.70;99.90
64501;DHT22;50874;24.150;-110.320;2022-09-03T01:59:39;28.70;99.90
64501;DHT22;50874;24.150;-110.320;2022-09-03T02:02:17;28.70;99.90
64501;DHT22;50874;24.150;-110.320;2022-09-03T02:07:37;28.80;99.90
64501;DHT22;50874;24.150;-110.320;2022-09-03T02:10:13;28.80;99.90
64501;DHT22;50874;24.150;-110.320;2022-09-03T02:12:45;28.90;99.90
64501;DHT22;50874;24.150;-110.320;2022-09-03T02:15:15;28.80;99.90
64501;DHT22;50874;24.150;-110.320;2022-09-03T02:17:44;28.80;99.90
64501;DHT22;50874;24.150;-110.320;2022-09-03T02:20:17;28.80;99.90
64501;DHT22;50874;24.150;-110.320;2022-09-03T02:22:45;28.80;99.90
64501;DHT22;50874;24.150;-110.320;2022-09-03T02:25:13;28.80;99.90
64501;DHT22;50874;24.150;-110.320;2022-09-03T02:27:40;28.70;99.90
64501;DHT22;50874;24.150;-110.320;2022-09-03T02:30:07;28.80;99.90
64501;DHT22;50874;24.150;-110.320;2022-09-03T02:32:34;28.80;99.90
64501;DHT22;50874;24.150;-110.320;2022-09-03T02:35:01;28.80;99.90
64501;DHT22;50874;24.150;-110.320;2022-09-03T02:37:27;28.80;99.90
64501;DHT22;50874;24.150;-110.320;2022-09-03T02:39:54;28.80;99.90
64501;DHT22;50874;24.150;-110.320;2022-09-03T02:42:20;28.80;99.90
64501;DHT22;50874;24.150;-110.320;2022-09-03T02:44:54;28.80;99.90
64501;DHT22;50874;24.150;-110.320;2022-09-03T02:47:22;28.80;99.90
64501;DHT22;50874;24.150;-110.320;2022-09-03T02:49:54;28.70;99.90
64501;DHT22;50874;24.150;-110.320;2022-09-03T02:52:20;28.70;99.90
64501;DHT22;50874;24.150;-110.320;2022-09-03T02:54:47;28.70;99.90
64501;DHT22;50874;24.150;-110.320;2022-09-03T02:57:15;28.70;99.90
64501;DHT22;50874;24.150;-110.320;2022-09-03T02:59:42;28.70;99.90
64501;DHT22;50874;24.150;-110.320;2022-09-03T03:02:12;28.70;99.90
64501;DHT22;50874;24.150;-110.320;2022-09-03T03:04:39;28.70;99.90
64501;DHT22;50874;24.150;-110.320;2022-09-03T03:07:06;28.70;99.90
64501;DHT22;50874;24.150;-110.320;2022-09-03T03:09:33;28.70;99.90
64501;DHT22;50874;24.150;-110.320;2022-09-03T03:11:59;28.60;99.90
64501;DHT22;50874;24.150;-110.320;2022-09-03T03:14:26;28.60;99.90
64501;DHT22;50874;24.150;-110.320;2022-09-03T03:16:52;28.60;99.90
64501;DHT22;50874;24.150;-110.320;2022-09-03T03:19:18;28.60;99.90
64501;DHT22;50874;24.150;-110.320;2022-09-03T03:21:45;28.60;99.90
64501;DHT22;50874;24.150;-110.320;2022-09-03T03:24:12;28.60;99.90
64501;DHT22;50874;24.150;-110.320;2022-09-03T03:26:38;28.60;99.90
64501;DHT22;50874;24.150;-110.320;2022-09-03T03:29:05;28.60;99.90
64501;DHT22;50874;24.150;-110.320;2022-09-03T03:31:32;28.60;99.90
64501;DHT22;50874;24.150;-110.320;2022-09-03T03:34:01;28.50;99.90
64501;DHT22;50874;24.150;-110.320;2022-09-03T03:36:30;28.50;99.90
64501;DHT22;50874;24.150;-110.320;2022-09-03T03:38:58;28.50;99.90
64501;DHT22;50874;24.150;-110.320;2022-09-03T03:41:30;28.60;99.90
64501;DHT22;50874;24.150;-110.320;2022-09-03T03:43:59;28.60;99.90
64501;DHT22;50874;24.150;-110.320;2022-09-03T03:46:29;28.60;99.90
64501;DHT22;50874;24.150;-110.320;2022-09-03T03:48:56;28.70;99.90
64501;DHT22;50874;24.150;-110.320;2022-09-03T03:51:24;28.70;99.90
64501;DHT22;50874;24.150;-110.320;2022-09-03T03:53:54;28.70;99.90
64501;DHT22;50874;24.150;-110.320;2022-09-03T03:56:22;28.70;99.90
64501;DHT22;50874;24.150;-110.320;2022-09-03T03:58:49;28.80;99.90
64501;DHT22;50874;24.150;-110.320;2022-09-03T04:01:21;28.70;99.90
64501;DHT22;50874;24.150;-110.320;2022-09-03T04:03:48;28.60;99.90
64501;DHT22;50874;24.150;-110.320;2022-09-03T04:06:17;28.50;99.90
64501;DHT22;50874;24.150;-110.320;2022-09-03T04:08:45;28.40;99.90
64501;DHT22;50874;24.150;-110.320;2022-09-03T04:11:14;28.40;99.90
64501;DHT22;50874;24.150;-110.320;2022-09-03T04:13:43;28.30;99.90
64501;DHT22;50874;24.150;-110.320;2022-09-03T04:16:18;28.20;99.90
64501;DHT22;50874;24.150;-110.320;2022-09-03T04:18:45;28.20;99.90
64501;DHT22;50874;24.150;-110.320;2022-09-03T04:21:18;28.10;99.90
64501;DHT22;50874;24.150;-110.320;2022-09-03T04:23:47;28.10;99.90
64501;DHT22;50874;24.150;-110.320;2022-09-03T04:26:19;28.10;99.90
64501;DHT22;50874;24.150;-110.320;2022-09-03T04:28:45;28.00;99.90
64501;DHT22;50874;24.150;-110.320;2022-09-03T04:31:17;28.00;99.90
64501;DHT22;50874;24.150;-110.320;2022-09-03T04:33:44;28.00;99.90
64501;DHT22;50874;24.150;-110.320;2022-09-03T04:36:15;28.00;99.90
64501;DHT22;50874;24.150;-110.320;2022-09-03T04:38:43;27.90;99.90
64501;DHT22;50874;24.150;-110.320;2022-09-03T04:41:12;27.90;99.90
64501;DHT22;50874;24.150;-110.320;2022-09-03T04:43:40;27.80;99.90
64501;DHT22;50874;24.150;-110.320;2022-09-03T04:46:11;27.80;99.90
64501;DHT22;50874;24.150;-110.320;2022-09-03T04:48:38;27.80;99.90
64501;DHT22;50874;24.150;-110.320;2022-09-03T04:51:16;27.80;99.90
64501;DHT22;50874;24.150;-110.320;2022-09-03T04:53:45;27.80;99.90
64501;DHT22;50874;24.150;-110.320;2022-09-03T04:56:23;27.80;99.90
64501;DHT22;50874;24.150;-110.320;2022-09-03T04:58:58;27.90;99.90
64501;DHT22;50874;24.150;-110.320;2022-09-03T05:01:26;27.80;99.90
64501;DHT22;50874;24.150;-110.320;2022-09-03T05:03:56;27.80;99.90
64501;DHT22;50874;24.150;-110.320;2022-09-03T05:06:27;27.80;99.90
64501;DHT22;50874;24.150;-110.320;2022-09-03T05:08:55;27.80;99.90
64501;DHT22;50874;24.150;-110.320;2022-09-03T05:11:23;27.80;99.90
64501;DHT22;50874;24.150;-110.320;2022-09-03T05:13:51;27.90;99.90
64501;DHT22;50874;24.150;-110.320;2022-09-03T05:16:19;27.90;99.90
64501;DHT22;50874;24.150;-110.320;2022-09-03T05:18:46;27.90;99.90
64501;DHT22;50874;24.150;-110.320;2022-09-03T05:21:17;27.80;99.90
64501;DHT22;50874;24.150;-110.320;2022-09-03T05:23:46;27.80;99.90
64501;DHT22;50874;24.150;-110.320;2022-09-03T05:26:15;27.70;99.90
64501;DHT22;50874;24.150;-110.320;2022-09-03T05:28:42;27.70;99.90
64501;DHT22;50874;24.150;-110.320;2022-09-03T05:31:15;27.70;99.90
64501;DHT22;50874;24.150;-110.320;2022-09-03T05:33:53;27.60;99.90
64501;DHT22;50874;24.150;-110.320;2022-09-03T05:36:24;27.60;99.90
64501;DHT22;50874;24.150;-110.320;2022-09-03T05:38:51;27.60;99.90
64501;DHT22;50874;24.150;-110.320;2022-09-03T05:41:22;27.50;99.90
64501;DHT22;50874;24.150;-110.320;2022-09-03T05:43:50;27.60;99.90
64501;DHT22;50874;24.150;-110.320;2022-09-03T05:46:30;27.50;99.90
64501;DHT22;50874;24.150;-110.320;2022-09-03T05:48:59;27.50;99.90
64501;DHT22;50874;24.150;-110.320;2022-09-03T05:51:27;27.50;99.90
64501;DHT22;50874;24.150;-110.320;2022-09-03T05:53:54;27.50;99.90
64501;DHT22;50874;24.150;-110.320;2022-09-03T05:56:22;27.50;99.90
64501;DHT22;50874;24.150;-110.320;2022-09-03T05:58:51;27.50;99.90
64501;DHT22;50874;24.150;-110.320;2022-09-03T06:01:23;27.50;99.90
64501;DHT22;50874;24.150;-110.320;2022-09-03T06:03:56;27.50;99.90
64501;DHT22;50874;24.150;-110.320;2022-09-03T06:06:24;27.60;99.90
64501;DHT22;50874;24.150;-110.320;2022-09-03T06:08:51;27.60;99.90
64501;DHT22;50874;24.150;-110.320;2022-09-03T06:11:18;27.60;99.90
64501;DHT22;50874;24.150;-110.320;2022-09-03T06:13:45;27.60;99.90
64501;DHT22;50874;24.150;-110.320;2022-09-03T06:16:12;27.60;99.90
64501;DHT22;50874;24.150;-110.320;2022-09-03T06:18:38;27.60;99.90
64501;DHT22;50874;24.150;-110.320;2022-09-03T06:21:06;27.70;99.90
64501;DHT22;50874;24.150;-110.320;2022-09-03T06:23:34;27.70;99.90
64501;DHT22;50874;24.150;-110.320;2022-09-03T06:26:09;27.70;99.90
64501;DHT22;50874;24.150;-110.320;2022-09-03T06:28:38;27.80;99.90
64501;DHT22;50874;24.150;-110.320;2022-09-03T06:31:07;27.80;99.90
64501;DHT22;50874;24.150;-110.320;2022-09-03T06:33:35;27.80;99.90
64501;DHT22;50874;24.150;-110.320;2022-09-03T06:36:05;27.80;99.90
64501;DHT22;50874;24.150;-110.320;2022-09-03T06:38:33;27.80;99.90
64501;DHT22;50874;24.150;-110.320;2022-09-03T06:41:02;27.80;99.90
64501;DHT22;50874;24.150;-110.320;2022-09-03T06:43:31;27.80;99.90
64501;DHT22;50874;24.150;-110.320;2022-09-03T06:46:03;27.80;99.90
64501;DHT22;50874;24.150;-110.320;2022-09-03T06:48:32;27.80;99.90
64501;DHT22;50874;24.150;-110.320;2022-09-03T06:51:04;27.80;99.90
64501;DHT22;50874;24.150;-110.320;2022-09-03T06:53:36;27.80;99.90
64501;DHT22;50874;24.150;-110.320;2022-09-03T06:56:05;27.80;99.90
64501;DHT22;50874;24.150;-110.320;2022-09-03T06:58:37;27.80;99.90
64501;DHT22;50874;24.150;-110.320;2022-09-03T07:01:07;27.80;99.90
64501;DHT22;50874;24.150;-110.320;2022-09-03T07:03:38;27.80;99.90
64501;DHT22;50874;24.150;-110.320;2022-09-03T07:06:10;27.80;99.90
64501;DHT22;50874;24.150;-110.320;2022-09-03T07:08:37;27.80;99.90
64501;DHT22;50874;24.150;-110.320;2022-09-03T07:11:05;27.80;99.90
64501;DHT22;50874;24.150;-110.320;2022-09-03T07:13:36;27.80;99.90
64501;DHT22;50874;24.150;-110.320;2022-09-03T07:16:06;27.70;99.90
64501;DHT22;50874;24.150;-110.320;2022-09-03T07:18:34;27.70;99.90
64501;DHT22;50874;24.150;-110.320;2022-09-03T07:21:06;27.70;99.90
64501;DHT22;50874;24.150;-110.320;2022-09-03T07:23:34;27.70;99.90
64501;DHT22;50874;24.150;-110.320;2022-09-03T07:26:04;27.70;99.90
64501;DHT22;50874;24.150;-110.320;2022-09-03T07:28:31;27.70;99.90
64501;DHT22;50874;24.150;-110.320;2022-09-03T07:31:37;27.60;99.90
64501;DHT22;50874;24.150;-110.320;2022-09-03T07:33:58;27.60;99.90
64501;DHT22;50874;24.150;-110.320;2022-09-03T07:36:27;27.60;99.90
64501;DHT22;50874;24.150;-110.320;2022-09-03T07:38:58;27.50;99.90
64501;DHT22;50874;24.150;-110.320;2022-09-03T07:41:25;27.50;99.90
64501;DHT22;50874;24.150;-110.320;2022-09-03T07:43:52;27.50;99.90
64501;DHT22;50874;24.150;-110.320;2022-09-03T07:46:24;27.40;99.90
64501;DHT22;50874;24.150;-110.320;2022-09-03T07:48:53;27.30;99.90
64501;DHT22;50874;24.150;-110.320;2022-09-03T07:51:22;27.40;99.90
64501;DHT22;50874;24.150;-110.320;2022-09-03T07:53:55;27.30;99.90
64501;DHT22;50874;24.150;-110.320;2022-09-03T07:56:23;27.20;99.90
64501;DHT22;50874;24.150;-110.320;2022-09-03T07:58:50;27.30;99.90
64501;DHT22;50874;24.150;-110.320;2022-09-03T08:01:21;27.30;99.90
64501;DHT22;50874;24.150;-110.320;2022-09-03T08:03:49;27.30;99.90
64501;DHT22;50874;24.150;-110.320;2022-09-03T08:06:18;27.30;99.90
64501;DHT22;50874;24.150;-110.320;2022-09-03T08:08:45;27.30;99.90
64501;DHT22;50874;24.150;-110.320;2022-09-03T08:11:17;27.20;99.90
64501;DHT22;50874;24.150;-110.320;2022-09-03T08:14:00;27.20;99.90
64501;DHT22;50874;24.150;-110.320;2022-09-03T08:16:32;27.20;99.90
64501;DHT22;50874;24.150;-110.320;2022-09-03T08:18:59;27.30;99.90
64501;DHT22;50874;24.150;-110.320;2022-09-03T08:21:26;27.20;99.90
64501;DHT22;50874;24.150;-110.320;2022-09-03T08:23:54;27.20;99.90
64501;DHT22;50874;24.150;-110.320;2022-09-03T08:26:46;27.20;99.90
64501;DHT22;50874;24.150;-110.320;2022-09-03T08:29:12;27.10;99.90
64501;DHT22;50874;24.150;-110.320;2022-09-03T08:31:39;27.20;99.90
64501;DHT22;50874;24.150;-110.320;2022-09-03T08:34:06;27.20;99.90
64501;DHT22;50874;24.150;-110.320;2022-09-03T08:36:37;27.10;99.90
64501;DHT22;50874;24.150;-110.320;2022-09-03T08:39:07;27.20;99.90
64501;DHT22;50874;24.150;-110.320;2022-09-03T08:44:50;27.10;99.90
64501;DHT22;50874;24.150;-110.320;2022-09-03T08:47:36;27.10;99.90
64501;DHT22;50874;24.150;-110.320;2022-09-03T08:53:07;27.00;99.90
64501;DHT22;50874;24.150;-110.320;2022-09-03T08:55:50;27.00;99.90
64501;DHT22;50874;24.150;-110.320;2022-09-03T08:58:20;27.10;99.90
64501;DHT22;50874;24.150;-110.320;2022-09-03T09:00:56;27.00;99.90
64501;DHT22;50874;24.150;-110.320;2022-09-03T09:06:49;27.00;99.90
64501;DHT22;50874;24.150;-110.320;2022-09-03T09:11:57;27.00;99.90
64501;DHT22;50874;24.150;-110.320;2022-09-03T09:17:39;27.00;99.90
64501;DHT22;50874;24.150;-110.320;2022-09-03T09:22:42;27.00;99.90
64501;DHT22;50874;24.150;-110.320;2022-09-03T09:25:19;27.00;99.90
64501;DHT22;50874;24.150;-110.320;2022-09-03T09:28:03;27.00;99.90
64501;DHT22;50874;24.150;-110.320;2022-09-03T09:30:34;27.00;99.90
64501;DHT22;50874;24.150;-110.320;2022-09-03T09:33:01;27.00;99.90
64501;DHT22;50874;24.150;-110.320;2022-09-03T09:35:27;27.00;99.90
64501;DHT22;50874;24.150;-110.320;2022-09-03T09:37:57;27.00;99.90
64501;DHT22;50874;24.150;-110.320;2022-09-03T09:40:36;27.00;99.90
64501;DHT22;50874;24.150;-110.320;2022-09-03T09:43:04;27.10;99.90
64501;DHT22;50874;24.150;-110.320;2022-09-03T09:45:31;27.00;99.90
64501;DHT22;50874;24.150;-110.320;2022-09-03T09:48:02;27.00;99.90
64501;DHT22;50874;24.150;-110.320;2022-09-03T09:50:32;27.00;99.90
64501;DHT22;50874;24.150;-110.320;2022-09-03T09:53:05;27.00;99.90
64501;DHT22;50874;24.150;-110.320;2022-09-03T09:55:50;27.00;99.90
64501;DHT22;50874;24.150;-110.320;2022-09-03T09:58:19;27.00;99.90
64501;DHT22;50874;24.150;-110.320;2022-09-03T10:01:10;27.10;99.90
64501;DHT22;50874;24.150;-110.320;2022-09-03T10:03:55;27.10;99.90
64501;DHT22;50874;24.150;-110.320;2022-09-03T10:06:23;27.10;99.90
64501;DHT22;50874;24.150;-110.320;2022-09-03T10:09:15;27.10;99.90
64501;DHT22;50874;24.150;-110.320;2022-09-03T10:12:34;27.00;99.90
64501;DHT22;50874;24.150;-110.320;2022-09-03T10:14:56;27.00;99.90
64501;DHT22;50874;24.150;-110.320;2022-09-03T10:23:16;27.00;99.90
64501;DHT22;50874;24.150;-110.320;2022-09-03T10:28:37;27.00;99.90
64501;DHT22;50874;24.150;-110.320;2022-09-03T10:43:15;26.80;99.90
64501;DHT22;50874;24.150;-110.320;2022-09-03T10:51:25;26.80;99.90
64501;DHT22;50874;24.150;-110.320;2022-09-03T10:54:36;26.80;99.90
64501;DHT22;50874;24.150;-110.320;2022-09-03T11:00:04;26.80;99.90
64501;DHT22;50874;24.150;-110.320;2022-09-03T11:10:34;26.70;99.90
64501;DHT22;50874;24.150;-110.320;2022-09-03T11:13:13;26.80;99.90
64501;DHT22;50874;24.150;-110.320;2022-09-03T11:15:55;26.80;99.90
64501;DHT22;50874;24.150;-110.320;2022-09-03T11:18:38;26.80;99.90
64501;DHT22;50874;24.150;-110.320;2022-09-03T11:21:09;26.70;99.90
64501;DHT22;50874;24.150;-110.320;2022-09-03T11:23:41;26.70;99.90
64501;DHT22;50874;24.150;-110.320;2022-09-03T11:26:10;26.70;99.90
64501;DHT22;50874;24.150;-110.320;2022-09-03T11:34:15;26.70;99.90
64501;DHT22;50874;24.150;-110.320;2022-09-03T11:37:15;26.70;99.90
64501;DHT22;50874;24.150;-110.320;2022-09-03T11:39:39;26.70;99.90
64501;DHT22;50874;24.150;-110.320;2022-09-03T11:42:11;26.70;99.90
64501;DHT22;50874;24.150;-110.320;2022-09-03T11:44:40;26.80;99.90
64501;DHT22;50874;24.150;-110.320;2022-09-03T11:47:22;26.70;99.90
64501;DHT22;50874;24.150;-110.320;2022-09-03T11:49:51;26.70;99.90
64501;DHT22;50874;24.150;-110.320;2022-09-03T11:52:29;26.70;99.90
64501;DHT22;50874;24.150;-110.320;2022-09-03T11:55:06;26.70;99.90
64501;DHT22;50874;24.150;-110.320;2022-09-03T11:57:40;26.70;99.90
64501;DHT22;50874;24.150;-110.320;2022-09-03T12:00:17;26.70;99.90
64501;DHT22;50874;24.150;-110.320;2022-09-03T12:03:01;26.70;99.90
64501;DHT22;50874;24.150;-110.320;2022-09-03T12:05:41;26.70;99.90
64501;DHT22;50874;24.150;-110.320;2022-09-03T12:10:44;26.60;99.90
64501;DHT22;50874;24.150;-110.320;2022-09-03T12:18:35;26.60;99.90
64501;DHT22;50874;24.150;-110.320;2022-09-03T12:21:03;26.50;99.90
64501;DHT22;50874;24.150;-110.320;2022-09-03T12:26:08;26.50;99.90
64501;DHT22;50874;24.150;-110.320;2022-09-03T12:28:41;26.40;99.90
64501;DHT22;50874;24.150;-110.320;2022-09-03T12:31:19;26.40;99.90
64501;DHT22;50874;24.150;-110.320;2022-09-03T12:33:59;26.40;99.90
64501;DHT22;50874;24.150;-110.320;2022-09-03T12:36:40;26.40;99.90
64501;DHT22;50874;24.150;-110.320;2022-09-03T12:41:34;26.40;99.90
64501;DHT22;50874;24.150;-110.320;2022-09-03T12:44:03;26.40;99.90
64501;DHT22;50874;24.150;-110.320;2022-09-03T12:46:31;26.30;99.90
64501;DHT22;50874;24.150;-110.320;2022-09-03T12:49:03;26.30;99.90
64501;DHT22;50874;24.150;-110.320;2022-09-03T12:51:41;26.30;99.90
64501;DHT22;50874;24.150;-110.320;2022-09-03T12:54:10;26.30;99.90
64501;DHT22;50874;24.150;-110.320;2022-09-03T12:56:53;26.20;99.90
64501;DHT22;50874;24.150;-110.320;2022-09-03T12:59:22;26.20;99.90
64501;DHT22;50874;24.150;-110.320;2022-09-03T13:01:52;26.20;99.90
64501;DHT22;50874;24.150;-110.320;2022-09-03T13:04:28;26.20;99.90
64501;DHT22;50874;24.150;-110.320;2022-09-03T13:09:40;26.20;99.90
64501;DHT22;50874;24.150;-110.320;2022-09-03T13:12:41;26.20;99.90
64501;DHT22;50874;24.150;-110.320;2022-09-03T13:15:16;26.20;99.90
64501;DHT22;50874;24.150;-110.320;2022-09-03T13:18:01;26.10;99.90
64501;DHT22;50874;24.150;-110.320;2022-09-03T13:23:37;26.10;99.90
64501;DHT22;50874;24.150;-110.320;2022-09-03T13:26:17;26.10;99.90
64501;DHT22;50874;24.150;-110.320;2022-09-03T13:31:52;26.20;99.90
64501;DHT22;50874;24.150;-110.320;2022-09-03T13:34:41;26.20;99.90
64501;DHT22;50874;24.150;-110.320;2022-09-03T13:42:54;26.40;99.90
64501;DHT22;50874;24.150;-110.320;2022-09-03T13:45:40;26.50;99.90
64501;DHT22;50874;24.150;-110.320;2022-09-03T13:48:16;26.60;99.90
64501;DHT22;50874;24.150;-110.320;2022-09-03T13:53:48;26.60;99.90
64501;DHT22;50874;24.150;-110.320;2022-09-03T13:56:25;26.70;99.90
64501;DHT22;50874;24.150;-110.320;2022-09-03T13:59:00;26.80;99.90
64501;DHT22;50874;24.150;-110.320;2022-09-03T14:04:20;27.20;99.90
64501;DHT22;50874;24.150;-110.320;2022-09-03T14:07:27;27.30;99.90
64501;DHT22;50874;24.150;-110.320;2022-09-03T14:10:21;27.50;99.90
64501;DHT22;50874;24.150;-110.320;2022-09-03T14:13:23;27.60;99.90
64501;DHT22;50874;24.150;-110.320;2022-09-03T14:24:58;28.90;99.90
64501;DHT22;50874;24.150;-110.320;2022-09-03T14:27:28;29.70;99.90
64501;DHT22;50874;24.150;-110.320;2022-09-03T14:30:54;30.40;99.90
64501;DHT22;50874;24.150;-110.320;2022-09-03T14:35:42;31.50;99.90
64501;DHT22;50874;24.150;-110.320;2022-09-03T14:44:14;33.20;99.90
64501;DHT22;50874;24.150;-110.320;2022-09-03T14:50:07;33.60;99.90
64501;DHT22;50874;24.150;-110.320;2022-09-03T14:58:08;34.30;99.90
64501;DHT22;50874;24.150;-110.320;2022-09-03T15:11:53;33.80;99.90
64501;DHT22;50874;24.150;-110.320;2022-09-03T15:14:25;34.10;99.90
64501;DHT22;50874;24.150;-110.320;2022-09-03T15:28:29;34.00;99.90
64501;DHT22;50874;24.150;-110.320;2022-09-03T15:33:51;34.90;99.90
64501;DHT22;50874;24.150;-110.320;2022-09-03T15:36:25;35.10;99.90
64501;DHT22;50874;24.150;-110.320;2022-09-03T15:39:16;35.30;99.90
64501;DHT22;50874;24.150;-110.320;2022-09-03T15:41:55;35.30;99.90
64501;DHT22;50874;24.150;-110.320;2022-09-03T15:44:23;35.20;99.90
64501;DHT22;50874;24.150;-110.320;2022-09-03T15:46:59;35.30;99.90
64501;DHT22;50874;24.150;-110.320;2022-09-03T15:55:31;35.50;99.90
64501;DHT22;50874;24.150;-110.320;2022-09-03T16:03:12;34.80;99.90
64501;DHT22;50874;24.150;-110.320;2022-09-03T16:05:53;35.30;99.90
64501;DHT22;50874;24.150;-110.320;2022-09-03T16:14:03;35.80;99.90
64501;DHT22;50874;24.150;-110.320;2022-09-03T16:22:13;36.70;99.90
64501;DHT22;50874;24.150;-110.320;2022-09-03T16:24:58;36.90;99.90
64501;DHT22;50874;24.150;-110.320;2022-09-03T16:27:33;37.30;99.90
64501;DHT22;50874;24.150;-110.320;2022-09-03T16:30:11;37.20;99.90
64501;DHT22;50874;24.150;-110.320;2022-09-03T16:32:57;37.60;99.90
64501;DHT22;50874;24.150;-110.320;2022-09-03T16:40:56;38.50;99.10
64501;DHT22;50874;24.150;-110.320;2022-09-03T16:46:42;37.40;99.30
64501;DHT22;50874;24.150;-110.320;2022-09-03T16:52:05;37.80;98.90
64501;DHT22;50874;24.150;-110.320;2022-09-03T17:00:19;38.70;97.20
64501;DHT22;50874;24.150;-110.320;2022-09-03T17:06:29;38.60;98.20
64501;DHT22;50874;24.150;-110.320;2022-09-03T17:11:41;37.70;98.10
64501;DHT22;50874;24.150;-110.320;2022-09-03T17:17:40;36.70;98.70
64501;DHT22;50874;24.150;-110.320;2022-09-03T17:20:24;36.80;99.60
64501;DHT22;50874;24.150;-110.320;2022-09-03T17:25:50;38.20;97.50
64501;DHT22;50874;24.150;-110.320;2022-09-03T17:28:40;38.70;97.10
64501;DHT22;50874;24.150;-110.320;2022-09-03T17:31:34;38.50;96.70
64501;DHT22;50874;24.150;-110.320;2022-09-03T17:34:13;37.90;97.10
64501;DHT22;50874;24.150;-110.320;2022-09-03T17:37:11;37.10;97.70
64501;DHT22;50874;24.150;-110.320;2022-09-03T17:39:48;36.60;99.10
64501;DHT22;50874;24.150;-110.320;2022-09-03T17:42:32;36.50;99.50
64501;DHT22;50874;24.150;-110.320;2022-09-03T17:48:39;36.50;99.90
64501;DHT22;50874;24.150;-110.320;2022-09-03T17:53:55;37.30;99.10
64501;DHT22;50874;24.150;-110.320;2022-09-03T17:59:08;38.10;97.50
64501;DHT22;50874;24.150;-110.320;2022-09-03T18:01:43;38.40;97.70
64501;DHT22;50874;24.150;-110.320;2022-09-03T18:04:30;39.20;96.70
64501;DHT22;50874;24.150;-110.320;2022-09-03T18:07:09;39.20;96.40
64501;DHT22;50874;24.150;-110.320;2022-09-03T18:10:02;39.60;96.30
64501;DHT22;50874;24.150;-110.320;2022-09-03T18:12:50;39.70;95.50
64501;DHT22;50874;24.150;-110.320;2022-09-03T18:15:21;39.20;96.10
64501;DHT22;50874;24.150;-110.320;2022-09-03T18:18:02;39.60;94.90
64501;DHT22;50874;24.150;-110.320;2022-09-03T18:20:46;39.00;95.10
64501;DHT22;50874;24.150;-110.320;2022-09-03T18:26:32;39.50;95.50
64501;DHT22;50874;24.150;-110.320;2022-09-03T18:29:32;39.80;95.00
64501;DHT22;50874;24.150;-110.320;2022-09-03T18:32:20;39.80;95.20
64501;DHT22;50874;24.150;-110.320;2022-09-03T18:35:07;40.30;94.80
64501;DHT22;50874;24.150;-110.320;2022-09-03T18:37:52;40.30;94.30
64501;DHT22;50874;24.150;-110.320;2022-09-03T18:41:03;40.40;94.40
64501;DHT22;50874;24.150;-110.320;2022-09-03T18:50:00;40.80;92.90
64501;DHT22;50874;24.150;-110.320;2022-09-03T18:53:01;40.60;93.20
64501;DHT22;50874;24.150;-110.320;2022-09-03T19:01:42;41.80;92.50
64501;DHT22;50874;24.150;-110.320;2022-09-03T19:07:24;41.40;91.90
64501;DHT22;50874;24.150;-110.320;2022-09-03T19:10:14;41.40;92.00
64501;DHT22;50874;24.150;-110.320;2022-09-03T19:16:02;42.20;91.20
64501;DHT22;50874;24.150;-110.320;2022-09-03T19:19:16;42.40;91.10
64501;DHT22;50874;24.150;-110.320;2022-09-03T19:22:11;41.80;90.30
64501;DHT22;50874;24.150;-110.320;2022-09-03T19:25:11;40.60;91.50
64501;DHT22;50874;24.150;-110.320;2022-09-03T19:28:16;39.60;92.80
64501;DHT22;50874;24.150;-110.320;2022-09-03T19:31:16;39.60;93.50
64501;DHT22;50874;24.150;-110.320;2022-09-03T19:37:22;40.10;92.40
64501;DHT22;50874;24.150;-110.320;2022-09-03T19:43:18;39.70;93.00
64501;DHT22;50874;24.150;-110.320;2022-09-03T19:50:10;39.10;94.30
64501;DHT22;50874;24.150;-110.320;2022-09-03T19:53:07;39.60;93.20
64501;DHT22;50874;24.150;-110.320;2022-09-03T19:56:04;39.80;93.00
64501;DHT22;50874;24.150;-110.320;2022-09-03T19:59:19;39.40;93.20
64501;DHT22;50874;24.150;-110.320;2022-09-03T20:02:05;39.00;93.40
64501;DHT22;50874;24.150;-110.320;2022-09-03T20:05:01;38.80;94.00
64501;DHT22;50874;24.150;-110.320;2022-09-03T20:07:49;39.10;94.00
64501;DHT22;50874;24.150;-110.320;2022-09-03T20:10:35;38.70;94.00
64501;DHT22;50874;24.150;-110.320;2022-09-03T20:13:11;38.30;94.00
64501;DHT22;50874;24.150;-110.320;2022-09-03T20:18:48;37.70;94.60
64501;DHT22;50874;24.150;-110.320;2022-09-03T20:29:20;39.20;94.60
64501;DHT22;50874;24.150;-110.320;2022-09-03T20:32:12;38.80;94.60
64501;DHT22;50874;24.150;-110.320;2022-09-03T20:34:55;38.70;95.00
64501;DHT22;50874;24.150;-110.320;2022-09-03T20:37:27;38.80;95.30
64501;DHT22;50874;24.150;-110.320;2022-09-03T20:46:27;38.50;95.30
64501;DHT22;50874;24.150;-110.320;2022-09-03T20:51:47;38.40;95.00
64501;DHT22;50874;24.150;-110.320;2022-09-03T21:05:37;39.80;93.30
64501;DHT22;50874;24.150;-110.320;2022-09-03T21:11:18;39.00;94.00
64501;DHT22;50874;24.150;-110.320;2022-09-03T21:16:41;37.40;96.60